Time;durP1;ratioP1;P1;durP2;ratioP2;P2;SDS_P1;SDS_P2;PMS_P1;PMS_P2;Temp;Humidity;BMP_temperature;BMP_pressure;BME280_temperature;BME280_humidity;BME280_pressure;Samples;Min_cycle;Max_cycle;Signal;HPM_P1;HPM_P2
2023/03/08 00:00:17;;;;;;;27.00;15.55;;;;;;;;;;5112319;28;20468;-72
2023/03/08 00:02:43;;;;;;;29.08;18.42;;;;;;;;;;5112175;28;20027;-72
2023/03/08 00:05:10;;;;;;;19.00;11.45;;;;;;;;;;5113154;28;20110;-71
2023/03/08 00:07:36;;;;;;;20.13;12.20;;;;;;;;;;5113683;28;20783;-73
2023/03/08 00:10:02;;;;;;;12.35;10.63;;;;;;;;;;5113155;28;20078;-73
2023/03/08 00:12:29;;;;;;;26.10;15.13;;;;;;;;;;5111756;28;20027;-72
2023/03/08 00:14:55;;;;;;;29.52;16.70;;;;;;;;;;5095050;28;20165;-72
2023/03/08 00:17:21;;;;;;;33.83;17.63;;;;;;;;;;5094023;28;20077;-71
2023/03/08 00:19:47;;;;;;;38.60;22.40;;;;;;;;;;5112465;28;20558;-72
2023/03/08 00:22:13;;;;;;;50.25;23.77;;;;;;;;;;5093891;28;20376;-72
2023/03/08 00:24:39;;;;;;;52.50;24.60;;;;;;;;;;5111821;28;20039;-72
2023/03/08 00:27:05;;;;;;;50.17;25.67;;;;;;;;;;5094216;28;20118;-72
2023/03/08 00:29:32;;;;;;;35.58;20.98;;;;;;;;;;5076892;28;20043;-72
2023/03/08 00:31:58;;;;;;;31.05;18.00;;;;;;;;;;5094011;28;20028;-72
2023/03/08 00:34:24;;;;;;;30.48;16.98;;;;;;;;;;5111511;28;20048;-73
2023/03/08 00:36:50;;;;;;;33.40;17.27;;;;;;;;;;5111859;28;20415;-72
2023/03/08 00:39:16;;;;;;;36.83;21.85;;;;;;;;;;5111691;28;20044;-70
2023/03/08 00:41:42;;;;;;;42.95;24.30;;;;;;;;;;5111183;28;20511;-71
2023/03/08 00:44:09;;;;;;;41.80;24.38;;;;;;;;;;5111592;28;20035;-71
2023/03/08 00:46:36;;;;;;;19.77;15.00;;;;;;;;;;5111444;28;20104;-71
2023/03/08 00:49:03;;;;;;;36.00;20.90;;;;;;;;;;5111397;28;20039;-72
2023/03/08 00:51:29;;;;;;;46.58;23.17;;;;;;;;;;5094091;28;20134;-71
2023/03/08 00:53:55;;;;;;;16.83;9.93;;;;;;;;;;5112071;28;20122;-72
2023/03/08 00:56:22;;;;;;;28.67;17.60;;;;;;;;;;5111018;28;20023;-71
2023/03/08 00:58:49;;;;;;;33.42;17.90;;;;;;;;;;5085282;28;20127;-71
2023/03/08 01:01:16;;;;;;;28.17;14.88;;;;;;;;;;5077368;28;20118;-71
2023/03/08 01:03:42;;;;;;;27.67;15.00;;;;;;;;;;5110660;28;20083;-72
2023/03/08 01:06:10;;;;;;;25.48;15.00;;;;;;;;;;5083106;28;20056;-72
2023/03/08 01:08:36;;;;;;;15.15;11.38;;;;;;;;;;5090351;28;20048;-71
2023/03/08 01:11:02;;;;;;;21.92;13.38;;;;;;;;;;5072718;28;20030;-71
2023/03/08 01:13:29;;;;;;;23.95;14.38;;;;;;;;;;5090305;28;20500;-72
2023/03/08 01:15:55;;;;;;;22.65;12.68;;;;;;;;;;5056154;28;20055;-72
2023/03/08 01:18:21;;;;;;;26.23;12.40;;;;;;;;;;5090294;28;20397;-72
2023/03/08 01:21:00;;;;;;;30.13;13.82;;;;;;;;;;5090598;28;20035;-71
2023/03/08 01:23:27;;;;;;;42.92;22.13;;;;;;;;;;5071751;28;20577;-71
2023/03/08 01:25:57;;;;;;;28.70;16.50;;;;;;;;;;5090469;28;20038;-71
2023/03/08 01:28:24;;;;;;;39.80;20.00;;;;;;;;;;5072018;28;20052;-72
2023/03/08 01:30:50;;;;;;;25.80;15.80;;;;;;;;;;5074381;28;20036;-72
2023/03/08 01:33:16;;;;;;;26.67;16.77;;;;;;;;;;5092511;28;20054;-71
2023/03/08 01:35:43;;;;;;;20.38;13.15;;;;;;;;;;5110343;28;20027;-71
2023/03/08 01:38:09;;;;;;;11.90;9.07;;;;;;;;;;5092282;28;20040;-72
2023/03/08 01:40:35;;;;;;;27.65;12.10;;;;;;;;;;5092126;28;20031;-72
2023/03/08 01:43:10;;;;;;;22.77;13.23;;;;;;;;;;5092278;28;20122;-70
2023/03/08 01:46:00;;;;;;;24.13;13.82;;;;;;;;;;5110334;28;20035;-72
2023/03/08 01:48:29;;;;;;;17.40;11.88;;;;;;;;;;5091707;28;20043;-73
2023/03/08 01:51:02;;;;;;;18.73;11.00;;;;;;;;;;5093285;28;20035;-72
2023/03/08 01:53:28;;;;;;;21.90;12.07;;;;;;;;;;5109872;28;20067;-72
2023/03/08 01:55:54;;;;;;;29.00;15.15;;;;;;;;;;5113178;28;20036;-72
2023/03/08 01:58:20;;;;;;;28.90;15.05;;;;;;;;;;5075662;28;20059;-73
2023/03/08 02:00:46;;;;;;;142.32;16.80;;;;;;;;;;5108714;28;20081;-70
2023/03/08 02:03:12;;;;;;;279.50;20.63;;;;;;;;;;5093424;28;20112;-72
2023/03/08 02:05:40;;;;;;;253.02;24.63;;;;;;;;;;5109248;28;20039;-71
2023/03/08 02:08:13;;;;;;;115.95;19.10;;;;;;;;;;5109936;27;20123;-70
2023/03/08 02:10:41;;;;;;;29.95;14.52;;;;;;;;;;5125741;27;20407;-70
2023/03/08 02:13:26;;;;;;;33.42;15.43;;;;;;;;;;5108696;28;20039;-71
2023/03/08 02:15:54;;;;;;;98.32;17.20;;;;;;;;;;5108705;28;20044;-72
2023/03/08 02:18:21;;;;;;;16.05;10.45;;;;;;;;;;5108886;28;20110;-72
2023/03/08 02:20:48;;;;;;;17.40;6.70;;;;;;;;;;5109775;28;20035;-72
2023/03/08 02:23:20;;;;;;;9.38;6.70;;;;;;;;;;5109685;28;20036;-72
2023/03/08 02:26:02;;;;;;;47.60;15.40;;;;;;;;;;5108132;28;20040;-71
2023/03/08 02:28:28;;;;;;;59.55;16.15;;;;;;;;;;5109210;28;20043;-72
2023/03/08 02:30:54;;;;;;;42.38;13.38;;;;;;;;;;5107387;28;20038;-71
2023/03/08 02:33:20;;;;;;;23.17;12.52;;;;;;;;;;5109484;28;20042;-70
2023/03/08 02:35:48;;;;;;;5.95;4.68;;;;;;;;;;5108593;28;20031;-72
2023/03/08 02:38:15;;;;;;;12.88;8.93;;;;;;;;;;5091190;28;20039;-73
2023/03/08 02:40:41;;;;;;;162.55;18.42;;;;;;;;;;5109291;28;20100;-71
2023/03/08 02:43:08;;;;;;;148.02;15.60;;;;;;;;;;5108228;28;20047;-71
2023/03/08 02:45:34;;;;;;;118.45;17.40;;;;;;;;;;5108217;28;20496;-72
2023/03/08 02:48:01;;;;;;;326.25;22.25;;;;;;;;;;5109260;28;20035;-73
2023/03/08 02:50:28;;;;;;;408.50;23.30;;;;;;;;;;5091359;28;20040;-73
2023/03/08 02:52:54;;;;;;;222.35;24.70;;;;;;;;;;5109369;28;20032;-73
2023/03/08 02:55:20;;;;;;;28.83;16.88;;;;;;;;;;5091023;28;20038;-70
2023/03/08 02:57:46;;;;;;;28.45;17.55;;;;;;;;;;5108943;28;20036;-72
2023/03/08 03:00:13;;;;;;;44.35;17.67;;;;;;;;;;5125025;28;20074;-72
2023/03/08 03:02:40;;;;;;;21.58;7.28;;;;;;;;;;5107818;28;20067;-72
2023/03/08 03:05:06;;;;;;;66.03;19.42;;;;;;;;;;5109264;28;20095;-73
2023/03/08 03:07:36;;;;;;;42.70;17.42;;;;;;;;;;5074379;28;20061;-72
2023/03/08 03:10:03;;;;;;;96.43;17.40;;;;;;;;;;5074368;28;20049;-71
2023/03/08 03:12:29;;;;;;;283.33;24.42;;;;;;;;;;5107994;28;20097;-72
2023/03/08 03:14:56;;;;;;;132.85;20.90;;;;;;;;;;5109351;28;20063;-73
2023/03/08 03:17:22;;;;;;;8.85;8.02;;;;;;;;;;5091109;28;20039;-72
2023/03/08 03:19:48;;;;;;;23.98;13.60;;;;;;;;;;5090812;28;20036;-72
2023/03/08 03:22:14;;;;;;;45.28;17.88;;;;;;;;;;5090880;28;20483;-72
2023/03/08 03:24:40;;;;;;;26.70;11.30;;;;;;;;;;5090463;28;20072;-73
2023/03/08 03:27:06;;;;;;;65.57;24.50;;;;;;;;;;5090729;28;20072;-70
2023/03/08 03:29:35;;;;;;;43.70;19.08;;;;;;;;;;5107208;28;20473;-73
2023/03/08 03:32:14;;;;;;;53.60;15.90;;;;;;;;;;5090906;28;20407;-72
2023/03/08 03:34:40;;;;;;;31.33;17.30;;;;;;;;;;5107733;28;20131;-72
2023/03/08 03:37:07;;;;;;;30.73;14.98;;;;;;;;;;5091152;28;20038;-73
2023/03/08 03:39:37;;;;;;;17.85;10.95;;;;;;;;;;5075679;28;20092;-71
2023/03/08 03:42:06;;;;;;;33.10;17.13;;;;;;;;;;5092840;28;20509;-71
2023/03/08 03:44:33;;;;;;;39.10;20.80;;;;;;;;;;5091558;28;20093;-72
2023/03/08 03:47:00;;;;;;;43.85;20.02;;;;;;;;;;5110703;28;20042;-72
2023/03/08 03:49:27;;;;;;;57.88;19.27;;;;;;;;;;5094317;28;20054;-71
2023/03/08 03:51:53;;;;;;;23.92;13.52;;;;;;;;;;5077561;28;20031;-72
2023/03/08 03:54:28;;;;;;;30.75;15.98;;;;;;;;;;5111202;28;20452;-72
2023/03/08 03:56:57;;;;;;;35.05;15.52;;;;;;;;;;5112510;28;20024;-72
2023/03/08 03:59:25;;;;;;;25.88;14.70;;;;;;;;;;5112317;28;20134;-72
2023/03/08 04:01:52;;;;;;;21.92;12.73;;;;;;;;;;5094362;28;20137;-72
2023/03/08 04:04:23;;;;;;;36.38;20.67;;;;;;;;;;5105711;28;20108;-73
2023/03/08 04:06:51;;;;;;;52.83;20.75;;;;;;;;;;5112363;28;20046;-73
2023/03/08 04:09:21;;;;;;;39.30;18.48;;;;;;;;;;5128245;27;20193;-72
2023/03/08 04:12:01;;;;;;;45.78;22.23;;;;;;;;;;5110855;28;20035;-72
2023/03/08 04:14:28;;;;;;;34.10;15.85;;;;;;;;;;5110712;28;20058;-71
2023/03/08 04:16:54;;;;;;;11.77;8.57;;;;;;;;;;5110647;28;20038;-72
2023/03/08 04:19:29;;;;;;;22.63;13.63;;;;;;;;;;5106419;28;20039;-71
2023/03/08 04:21:57;;;;;;;28.52;15.43;;;;;;;;;;5087504;28;20470;-72
2023/03/08 04:24:28;;;;;;;32.83;12.75;;;;;;;;;;5077007;28;20042;-71
2023/03/08 04:26:59;;;;;;;25.63;15.40;;;;;;;;;;5092758;28;20071;-73
2023/03/08 04:29:27;;;;;;;20.00;12.73;;;;;;;;;;5093434;28;20110;-71
2023/03/08 04:31:58;;;;;;;14.55;10.63;;;;;;;;;;5110391;28;20039;-72
2023/03/08 04:34:26;;;;;;;33.00;17.73;;;;;;;;;;5110407;28;20036;-71
2023/03/08 04:36:53;;;;;;;27.75;16.67;;;;;;;;;;5096202;28;20472;-72
2023/03/08 04:39:20;;;;;;;27.40;15.70;;;;;;;;;;5090026;28;20035;-71
2023/03/08 04:41:47;;;;;;;34.58;17.13;;;;;;;;;;5089830;28;20040;-70
2023/03/08 04:44:20;;;;;;;33.33;17.42;;;;;;;;;;5072768;28;20036;-72
2023/03/08 04:46:49;;;;;;;33.53;16.98;;;;;;;;;;5067560;28;20047;-72
2023/03/08 04:49:23;;;;;;;10.05;8.15;;;;;;;;;;5102250;28;20051;-71
2023/03/08 04:51:53;;;;;;;23.63;13.85;;;;;;;;;;5099267;28;20032;-70
2023/03/08 04:54:21;;;;;;;28.90;16.30;;;;;;;;;;5099044;28;20039;-71
2023/03/08 04:56:53;;;;;;;43.35;19.95;;;;;;;;;;5100369;28;20032;-71
2023/03/08 04:59:23;;;;;;;25.08;14.65;;;;;;;;;;5099695;28;20134;-72
2023/03/08 05:01:51;;;;;;;27.55;16.25;;;;;;;;;;5098613;28;20024;-72
2023/03/08 05:04:17;;;;;;;32.80;16.02;;;;;;;;;;5098574;28;20056;-71
2023/03/08 05:06:44;;;;;;;33.95;18.40;;;;;;;;;;5104543;28;20079;-72
2023/03/08 05:09:14;;;;;;;30.77;15.87;;;;;;;;;;5097183;28;20116;-71
2023/03/08 05:11:42;;;;;;;29.42;14.82;;;;;;;;;;5099906;28;20618;-71
2023/03/08 05:14:08;;;;;;;20.58;12.43;;;;;;;;;;5080950;28;20056;-72
2023/03/08 05:16:34;;;;;;;30.35;15.20;;;;;;;;;;5100554;28;20031;-71
2023/03/08 05:19:01;;;;;;;20.75;13.02;;;;;;;;;;5100170;28;20088;-70
2023/03/08 05:21:34;;;;;;;24.58;15.48;;;;;;;;;;5099248;28;20032;-72
2023/03/08 05:24:01;;;;;;;41.08;21.30;;;;;;;;;;5100804;28;20123;-71
2023/03/08 05:26:31;;;;;;;13.70;9.32;;;;;;;;;;5091154;28;20131;-71
2023/03/08 05:29:00;;;;;;;18.25;12.25;;;;;;;;;;5092139;28;20578;-70
2023/03/08 05:31:27;;;;;;;24.20;12.55;;;;;;;;;;5109427;28;20042;-71
2023/03/08 05:33:55;;;;;;;26.63;11.02;;;;;;;;;;5092586;28;20040;-71
2023/03/08 05:36:36;;;;;;;14.88;11.05;;;;;;;;;;5109656;28;20043;-71
2023/03/08 05:39:03;;;;;;;17.40;12.35;;;;;;;;;;5092740;28;20042;-72
2023/03/08 05:41:56;;;;;;;13.88;11.00;;;;;;;;;;5106628;28;20446;-72
2023/03/08 05:44:28;;;;;;;17.95;11.77;;;;;;;;;;5107876;28;20059;-71
2023/03/08 05:46:56;;;;;;;16.45;13.05;;;;;;;;;;5094063;28;20544;-81
2023/03/08 05:49:22;;;;;;;21.58;13.07;;;;;;;;;;5117457;28;20118;-81
2023/03/08 05:51:48;;;;;;;22.38;13.82;;;;;;;;;;5117697;28;20063;-80
2023/03/08 05:54:15;;;;;;;16.05;11.70;;;;;;;;;;5120773;28;20051;-81
2023/03/08 05:56:43;;;;;;;24.95;14.52;;;;;;;;;;5107110;28;20127;-81
2023/03/08 05:59:18;;;;;;;23.13;13.40;;;;;;;;;;5124756;28;20039;-80
2023/03/08 06:01:45;;;;;;;21.13;13.52;;;;;;;;;;5120187;28;20050;-81
2023/03/08 06:04:32;;;;;;;16.73;11.50;;;;;;;;;;5119354;28;20043;-81
2023/03/08 06:06:58;;;;;;;27.23;17.80;;;;;;;;;;5100489;28;20039;-80
2023/03/08 06:09:30;;;;;;;29.55;18.25;;;;;;;;;;5092458;28;20043;-78
2023/03/08 06:11:57;;;;;;;23.42;17.30;;;;;;;;;;5104687;28;20077;-79
2023/03/08 06:14:23;;;;;;;17.00;11.35;;;;;;;;;;5096452;28;20039;-81
2023/03/08 06:16:52;;;;;;;17.67;13.57;;;;;;;;;;5099823;28;20463;-83
2023/03/08 06:19:22;;;;;;;13.35;11.57;;;;;;;;;;5094951;28;20538;-80
2023/03/08 06:21:51;;;;;;;15.75;10.43;;;;;;;;;;5106826;28;20053;-81
2023/03/08 06:24:17;;;;;;;15.00;11.10;;;;;;;;;;5103049;28;20065;-83
2023/03/08 06:26:44;;;;;;;18.38;11.95;;;;;;;;;;5095736;28;20032;-83
2023/03/08 06:29:10;;;;;;;17.10;11.55;;;;;;;;;;5085329;28;20047;-83
2023/03/08 06:31:37;;;;;;;22.35;13.82;;;;;;;;;;5069470;28;20043;-83
2023/03/08 06:34:05;;;;;;;19.35;12.65;;;;;;;;;;5084699;28;20115;-82
2023/03/08 06:36:32;;;;;;;13.23;11.35;;;;;;;;;;5083771;28;20036;-81
2023/03/08 06:38:58;;;;;;;14.75;11.05;;;;;;;;;;5083764;28;20036;-82
2023/03/08 06:41:25;;;;;;;12.48;9.43;;;;;;;;;;5085308;28;20070;-83
2023/03/08 06:43:54;;;;;;;13.63;10.63;;;;;;;;;;5083609;28;20091;-82
2023/03/08 06:46:21;;;;;;;10.40;8.63;;;;;;;;;;5091683;28;20024;-83
2023/03/08 06:48:47;;;;;;;14.65;10.05;;;;;;;;;;5096816;28;20043;-84
2023/03/08 06:51:14;;;;;;;15.70;11.50;;;;;;;;;;5107527;28;20039;-81
2023/03/08 06:53:43;;;;;;;13.50;11.70;;;;;;;;;;5074622;28;20448;-82
2023/03/08 06:56:11;;;;;;;12.02;10.75;;;;;;;;;;5108366;28;20035;-83
2023/03/08 06:58:37;;;;;;;13.60;8.43;;;;;;;;;;5111458;28;20028;-83
2023/03/08 07:01:04;;;;;;;8.52;7.60;;;;;;;;;;5111040;28;20048;-80
2023/03/08 07:03:31;;;;;;;6.68;5.10;;;;;;;;;;5126748;28;20027;-82
2023/03/08 07:05:57;;;;;;;7.93;6.28;;;;;;;;;;5105409;28;20738;-81
2023/03/08 07:08:23;;;;;;;11.80;9.52;;;;;;;;;;5104869;28;20063;-81
2023/03/08 07:10:50;;;;;;;14.40;10.35;;;;;;;;;;5084374;28;20633;-82
2023/03/08 07:13:16;;;;;;;13.00;6.68;;;;;;;;;;5107722;28;20344;-83
2023/03/08 07:15:42;;;;;;;8.85;7.43;;;;;;;;;;5122462;28;20058;-79
2023/03/08 07:18:08;;;;;;;9.55;8.75;;;;;;;;;;5106977;28;20032;-81
2023/03/08 07:20:34;;;;;;;7.93;7.25;;;;;;;;;;5108692;28;20040;-81
2023/03/08 07:23:00;;;;;;;8.05;6.65;;;;;;;;;;5111422;28;20055;-83
2023/03/08 07:25:27;;;;;;;9.18;8.13;;;;;;;;;;5112837;28;20039;-82
2023/03/08 07:27:53;;;;;;;7.57;6.90;;;;;;;;;;5095483;28;20024;-82
2023/03/08 07:30:19;;;;;;;6.75;6.13;;;;;;;;;;5091760;28;20069;-83
2023/03/08 07:32:45;;;;;;;6.75;6.15;;;;;;;;;;5108750;28;20536;-81
2023/03/08 07:35:14;;;;;;;10.10;9.20;;;;;;;;;;5102409;28;20036;-81
2023/03/08 07:37:42;;;;;;;7.32;6.72;;;;;;;;;;5095793;28;20024;-77
2023/03/08 07:40:09;;;;;;;7.28;6.75;;;;;;;;;;5092610;28;20082;-79
2023/03/08 07:42:35;;;;;;;12.90;7.07;;;;;;;;;;5026734;28;20036;-79
2023/03/08 07:45:13;;;;;;;7.50;6.90;;;;;;;;;;5078232;28;20039;-83
2023/03/08 07:47:39;;;;;;;6.78;6.18;;;;;;;;;;5093391;28;20036;-78
2023/03/08 07:50:05;;;;;;;6.07;5.00;;;;;;;;;;5091933;28;20047;-78
2023/03/08 07:52:31;;;;;;;6.10;5.60;;;;;;;;;;5073909;28;20032;-75
2023/03/08 07:54:57;;;;;;;5.57;4.97;;;;;;;;;;5105560;28;20039;-83
2023/03/08 07:57:23;;;;;;;7.78;7.18;;;;;;;;;;5108593;28;20115;-77
2023/03/08 07:59:49;;;;;;;6.07;5.57;;;;;;;;;;5073536;28;20036;-77
2023/03/08 08:02:16;;;;;;;5.70;5.18;;;;;;;;;;5079057;28;20111;-79
2023/03/08 08:04:44;;;;;;;4.95;4.55;;;;;;;;;;5087453;28;20148;-78
2023/03/08 08:07:12;;;;;;;5.15;4.72;;;;;;;;;;5102727;28;20085;-79
2023/03/08 08:09:41;;;;;;;5.22;4.82;;;;;;;;;;5091332;28;20144;-79
2023/03/08 08:12:07;;;;;;;6.90;6.30;;;;;;;;;;5096922;28;20110;-78
2023/03/08 08:14:33;;;;;;;6.15;5.55;;;;;;;;;;5111354;28;20035;-80
2023/03/08 08:16:59;;;;;;;6.68;6.18;;;;;;;;;;5114469;28;20027;-79
2023/03/08 08:19:25;;;;;;;5.43;5.03;;;;;;;;;;5096382;28;20414;-83
2023/03/08 08:21:51;;;;;;;6.20;5.70;;;;;;;;;;5094400;28;20042;-76
2023/03/08 08:24:17;;;;;;;7.80;6.97;;;;;;;;;;5117376;28;20419;-80
2023/03/08 08:26:43;;;;;;;6.38;5.75;;;;;;;;;;5115724;28;20116;-80
2023/03/08 08:29:14;;;;;;;8.13;7.32;;;;;;;;;;5113959;28;20403;-81
2023/03/08 08:31:40;;;;;;;7.63;7.03;;;;;;;;;;5112755;28;20038;-79
2023/03/08 08:34:07;;;;;;;7.72;7.00;;;;;;;;;;5095924;28;20112;-80
2023/03/08 08:36:36;;;;;;;7.22;6.30;;;;;;;;;;5113872;28;20218;-78
2023/03/08 08:39:02;;;;;;;6.25;5.78;;;;;;;;;;5095011;28;20035;-79
2023/03/08 08:41:30;;;;;;;9.45;8.65;;;;;;;;;;5092328;28;20126;-79
2023/03/08 08:44:02;;;;;;;9.43;8.68;;;;;;;;;;5090987;28;20412;-78
2023/03/08 08:46:28;;;;;;;7.13;6.00;;;;;;;;;;5091817;28;20060;-75
2023/03/08 08:48:57;;;;;;;8.75;7.85;;;;;;;;;;5086785;28;20393;-81
2023/03/08 08:51:23;;;;;;;5.95;5.35;;;;;;;;;;5105291;28;20062;-81
2023/03/08 08:53:49;;;;;;;6.45;5.80;;;;;;;;;;5107306;28;20035;-79
2023/03/08 08:56:18;;;;;;;5.72;5.22;;;;;;;;;;5107138;28;20430;-81
2023/03/08 08:58:45;;;;;;;12.25;7.00;;;;;;;;;;5102512;28;20032;-78
2023/03/08 09:01:12;;;;;;;7.85;7.25;;;;;;;;;;5099072;28;20032;-78
2023/03/08 09:03:37;;;;;;;7.60;7.00;;;;;;;;;;5101454;28;20062;-77
2023/03/08 09:06:04;;;;;;;5.22;4.82;;;;;;;;;;5082869;28;20042;-81
2023/03/08 09:08:32;;;;;;;15.77;5.28;;;;;;;;;;5107116;28;20033;-82
2023/03/08 09:11:02;;;;;;;7.30;6.35;;;;;;;;;;5111744;28;20038;-83
2023/03/08 09:13:28;;;;;;;8.80;7.95;;;;;;;;;;5092689;28;20024;-82
2023/03/08 09:15:54;;;;;;;6.20;5.70;;;;;;;;;;5096014;28;20027;-82
2023/03/08 09:18:19;;;;;;;8.85;5.93;;;;;;;;;;5108827;28;20035;-83
2023/03/08 09:20:45;;;;;;;7.35;6.68;;;;;;;;;;5068263;28;20101;-80
2023/03/08 09:23:11;;;;;;;7.78;7.13;;;;;;;;;;5110647;28;20556;-79
2023/03/08 09:25:37;;;;;;;6.93;6.32;;;;;;;;;;5107222;28;20054;-77
2023/03/08 09:28:03;;;;;;;7.15;5.65;;;;;;;;;;5109352;28;20106;-75
2023/03/08 09:30:31;;;;;;;5.95;5.53;;;;;;;;;;5089898;28;20071;-76
2023/03/08 09:32:57;;;;;;;9.63;6.25;;;;;;;;;;5108802;28;20027;-75
2023/03/08 09:35:24;;;;;;;7.63;7.03;;;;;;;;;;5075046;28;20040;-76
2023/03/08 09:37:50;;;;;;;8.02;7.32;;;;;;;;;;5091480;28;20376;-76
2023/03/08 09:40:20;;;;;;;5.93;5.45;;;;;;;;;;5110071;28;20072;-76
2023/03/08 09:42:46;;;;;;;7.20;6.60;;;;;;;;;;5109780;28;20031;-76
2023/03/08 09:45:22;;;;;;;8.57;7.80;;;;;;;;;;5109661;28;20035;-81
2023/03/08 09:47:50;;;;;;;7.00;6.47;;;;;;;;;;5110090;28;20042;-77
2023/03/08 09:50:20;;;;;;;6.18;5.68;;;;;;;;;;5109805;28;20048;-78
2023/03/08 09:52:51;;;;;;;6.88;6.38;;;;;;;;;;5109976;28;20510;-78
2023/03/08 09:55:27;;;;;;;7.07;6.45;;;;;;;;;;5092534;28;20035;-78
2023/03/08 09:57:54;;;;;;;6.05;5.60;;;;;;;;;;5092504;28;20031;-77
2023/03/08 10:00:22;;;;;;;9.57;6.82;;;;;;;;;;5092042;28;20126;-78
2023/03/08 10:02:57;;;;;;;6.55;5.93;;;;;;;;;;5091413;28;20040;-78
2023/03/08 10:05:29;;;;;;;7.45;6.85;;;;;;;;;;5109759;28;20031;-78
2023/03/08 10:08:05;;;;;;;7.78;7.20;;;;;;;;;;5091431;28;20036;-77
2023/03/08 10:10:49;;;;;;;8.13;7.38;;;;;;;;;;5109852;28;20051;-80
2023/03/08 10:13:29;;;;;;;7.78;7.15;;;;;;;;;;5075739;28;20110;-77
2023/03/08 10:16:14;;;;;;;9.30;8.55;;;;;;;;;;5107021;28;20108;-76
2023/03/08 10:18:40;;;;;;;7.28;6.65;;;;;;;;;;5073876;28;20024;-81
2023/03/08 10:21:08;;;;;;;13.57;12.35;;;;;;;;;;5091451;28;20035;-77
2023/03/08 10:23:34;;;;;;;11.80;10.55;;;;;;;;;;5110183;28;20035;-80
2023/03/08 10:26:01;;;;;;;8.80;7.90;;;;;;;;;;5083385;28;20040;-80
2023/03/08 10:28:27;;;;;;;8.32;7.63;;;;;;;;;;5054948;28;20051;-79
2023/03/08 10:30:57;;;;;;;7.68;6.97;;;;;;;;;;5072289;28;20044;-79
2023/03/08 10:33:23;;;;;;;7.60;6.90;;;;;;;;;;5092311;28;20122;-79
2023/03/08 10:35:54;;;;;;;8.48;7.70;;;;;;;;;;5094930;28;20036;-79
2023/03/08 10:38:20;;;;;;;9.73;8.82;;;;;;;;;;5073659;28;20450;-81
2023/03/08 10:40:46;;;;;;;8.57;7.70;;;;;;;;;;5090528;28;20036;-80
2023/03/08 10:43:16;;;;;;;9.65;7.82;;;;;;;;;;5089880;28;20085;-81
2023/03/08 10:45:42;;;;;;;10.15;9.15;;;;;;;;;;5072261;28;20036;-81
2023/03/08 10:48:15;;;;;;;7.57;6.93;;;;;;;;;;5091438;28;20032;-79
2023/03/08 10:50:41;;;;;;;7.60;6.90;;;;;;;;;;5056848;28;20044;-79
2023/03/08 10:53:15;;;;;;;8.98;8.10;;;;;;;;;;5092025;28;20066;-81
2023/03/08 10:55:45;;;;;;;9.65;8.43;;;;;;;;;;5088968;28;20127;-80
2023/03/08 10:58:26;;;;;;;7.70;7.05;;;;;;;;;;5089568;28;20038;-79
2023/03/08 11:00:52;;;;;;;;;;;;;;;;;;5089658;28;20100;-78
2023/03/08 11:03:21;;;;;;;8.60;7.82;;;;;;;;;;5074775;28;19954;-78
2023/03/08 11:05:51;;;;;;;10.13;8.93;;;;;;;;;;5087559;28;20507;-76
2023/03/08 11:08:17;;;;;;;8.35;7.55;;;;;;;;;;5109348;28;20127;-77
2023/03/08 11:10:43;;;;;;;11.23;10.23;;;;;;;;;;5109332;28;20167;-76
2023/03/08 11:13:27;;;;;;;10.60;9.55;;;;;;;;;;5091513;28;20036;-76
2023/03/08 11:16:07;;;;;;;7.25;6.55;;;;;;;;;;5087605;28;20028;-78
2023/03/08 11:18:33;;;;;;;11.63;10.63;;;;;;;;;;5106709;28;20042;-78
2023/03/08 11:21:02;;;;;;;7.22;6.63;;;;;;;;;;5110377;28;20027;-82
2023/03/08 11:23:28;;;;;;;6.45;5.85;;;;;;;;;;5117278;28;20048;-80
2023/03/08 11:25:56;;;;;;;10.38;9.55;;;;;;;;;;5107706;28;20038;-79
2023/03/08 11:28:31;;;;;;;8.30;7.60;;;;;;;;;;5087339;28;20044;-76
2023/03/08 11:31:07;;;;;;;7.47;6.88;;;;;;;;;;5065502;28;20571;-80
2023/03/08 11:33:41;;;;;;;9.02;7.45;;;;;;;;;;5098955;28;20028;-79
2023/03/08 11:36:36;;;;;;;10.80;9.80;;;;;;;;;;5098471;28;20122;-78
2023/03/08 11:39:14;;;;;;;9.43;8.60;;;;;;;;;;5082531;28;20055;-77
2023/03/08 11:41:42;;;;;;;8.38;7.65;;;;;;;;;;5105836;28;20419;-77
2023/03/08 11:44:11;;;;;;;9.20;8.43;;;;;;;;;;5107481;28;20036;-76
2023/03/08 11:46:49;;;;;;;7.18;6.53;;;;;;;;;;5108208;28;20122;-75
2023/03/08 11:49:28;;;;;;;8.68;7.88;;;;;;;;;;5106458;28;20043;-76
2023/03/08 11:52:13;;;;;;;9.50;8.70;;;;;;;;;;5106553;28;20055;-76
2023/03/08 11:54:54;;;;;;;9.07;8.27;;;;;;;;;;5107739;28;20034;-77
2023/03/08 11:57:20;;;;;;;8.38;7.72;;;;;;;;;;5107083;28;20130;-76
2023/03/08 11:59:50;;;;;;;11.43;10.38;;;;;;;;;;5102336;28;20031;-79
2023/03/08 12:02:36;;;;;;;11.23;10.15;;;;;;;;;;5098323;28;20046;-78
2023/03/08 12:05:06;;;;;;;10.05;9.05;;;;;;;;;;5096116;28;20036;-79
2023/03/08 12:07:42;;;;;;;8.82;7.63;;;;;;;;;;5099607;28;20039;-80
2023/03/08 12:10:11;;;;;;;9.60;8.80;;;;;;;;;;5109043;28;20100;-79
2023/03/08 12:12:43;;;;;;;9.45;8.65;;;;;;;;;;5107580;28;20114;-80
2023/03/08 12:15:28;;;;;;;11.07;9.98;;;;;;;;;;5096224;28;20040;-79
2023/03/08 12:18:11;;;;;;;9.80;8.88;;;;;;;;;;5101206;28;20092;-77
2023/03/08 12:20:38;;;;;;;8.98;8.20;;;;;;;;;;5105271;28;20035;-76
2023/03/08 12:23:11;;;;;;;8.77;7.97;;;;;;;;;;5106522;28;20032;-77
2023/03/08 12:25:38;;;;;;;10.65;9.52;;;;;;;;;;5108873;28;20035;-75
2023/03/08 12:28:05;;;;;;;9.18;8.32;;;;;;;;;;5108520;28;20031;-75
2023/03/08 12:30:35;;;;;;;7.22;6.63;;;;;;;;;;5108079;28;20578;-76
2023/03/08 12:33:04;;;;;;;10.68;9.25;;;;;;;;;;5109718;28;20427;-76
2023/03/08 12:35:31;;;;;;;8.82;8.05;;;;;;;;;;5110380;28;20062;-76
2023/03/08 12:37:58;;;;;;;15.32;8.52;;;;;;;;;;5111778;28;20115;-77
2023/03/08 12:40:26;;;;;;;7.80;7.20;;;;;;;;;;5093653;28;20040;-76
2023/03/08 12:43:02;;;;;;;11.15;10.15;;;;;;;;;;5110330;28;20040;-78
2023/03/08 12:45:29;;;;;;;13.25;12.02;;;;;;;;;;5110252;28;20028;-78
2023/03/08 12:48:04;;;;;;;7.40;6.75;;;;;;;;;;5112855;28;20180;-77
2023/03/08 12:50:45;;;;;;;7.40;6.60;;;;;;;;;;5111688;28;20072;-78
2023/03/08 12:53:29;;;;;;;9.20;8.48;;;;;;;;;;5113073;28;20868;-77
2023/03/08 12:55:59;;;;;;;10.70;9.70;;;;;;;;;;5110912;28;20496;-77
2023/03/08 12:58:25;;;;;;;12.43;11.20;;;;;;;;;;5113133;28;20034;-77
2023/03/08 13:01:01;;;;;;;10.23;9.27;;;;;;;;;;5110686;28;20043;-77
2023/03/08 13:03:37;;;;;;;10.73;9.82;;;;;;;;;;5110294;28;20074;-78
2023/03/08 13:06:14;;;;;;;9.85;8.85;;;;;;;;;;5093442;28;20046;-77
2023/03/08 13:08:41;;;;;;;9.50;8.55;;;;;;;;;;5111977;28;20038;-76
2023/03/08 13:11:09;;;;;;;8.80;8.05;;;;;;;;;;5110311;28;20040;-77
2023/03/08 13:13:45;;;;;;;12.43;11.13;;;;;;;;;;5107742;28;20031;-78
2023/03/08 13:16:14;;;;;;;8.73;7.90;;;;;;;;;;5112850;28;20102;-77
2023/03/08 13:18:43;;;;;;;11.35;10.38;;;;;;;;;;5112066;28;20142;-77
2023/03/08 13:21:44;;;;;;;12.23;11.07;;;;;;;;;;5111447;28;20035;-77
2023/03/08 13:24:12;;;;;;;10.90;10.05;;;;;;;;;;5069361;28;20059;-79
2023/03/08 13:27:13;;;;;;;9.30;8.43;;;;;;;;;;5101722;28;20508;-77
2023/03/08 13:29:40;;;;;;;11.82;10.73;;;;;;;;;;5074455;28;20183;-77
2023/03/08 13:32:09;;;;;;;10.20;9.23;;;;;;;;;;5093333;28;20095;-78
2023/03/08 13:34:35;;;;;;;12.25;11.00;;;;;;;;;;5121562;28;20062;-77
2023/03/08 13:37:01;;;;;;;10.35;9.45;;;;;;;;;;5121839;28;20031;-77
2023/03/08 13:39:28;;;;;;;12.43;11.25;;;;;;;;;;5122124;28;20061;-77
2023/03/08 13:42:23;;;;;;;7.65;7.03;;;;;;;;;;5122731;28;20039;-77
2023/03/08 13:44:50;;;;;;;10.73;9.73;;;;;;;;;;5096906;27;20552;-77
2023/03/08 13:47:23;;;;;;;11.23;10.18;;;;;;;;;;5109808;28;20039;-77
2023/03/08 13:49:49;;;;;;;10.48;9.63;;;;;;;;;;5111506;28;20054;-78
2023/03/08 13:52:16;;;;;;;9.25;8.35;;;;;;;;;;5111291;28;20031;-76
2023/03/08 13:54:44;;;;;;;9.15;8.35;;;;;;;;;;5075299;28;20054;-77
2023/03/08 13:57:23;;;;;;;12.85;11.65;;;;;;;;;;5109899;28;20035;-76
2023/03/08 13:59:51;;;;;;;12.10;11.00;;;;;;;;;;5090760;28;20031;-79
2023/03/08 14:02:21;;;;;;;12.15;11.07;;;;;;;;;;5107862;28;20547;-77
2023/03/08 14:04:48;;;;;;;11.17;10.07;;;;;;;;;;5108471;28;20043;-76
2023/03/08 14:07:18;;;;;;;13.52;12.15;;;;;;;;;;5110198;28;20274;-76
2023/03/08 14:09:44;;;;;;;13.20;12.10;;;;;;;;;;5108677;28;20058;-77
2023/03/08 14:12:12;;;;;;;10.82;9.80;;;;;;;;;;5102639;28;20032;-78
2023/03/08 14:14:39;;;;;;;10.88;9.63;;;;;;;;;;5088797;28;20131;-77
2023/03/08 14:17:05;;;;;;;12.30;10.68;;;;;;;;;;5076643;28;20054;-78
2023/03/08 14:19:38;;;;;;;15.18;12.52;;;;;;;;;;5160059;22;20127;-77
2023/03/08 14:22:10;;;;;;;14.85;12.40;;;;;;;;;;5071398;28;20054;-78
2023/03/08 14:24:36;;;;;;;10.23;9.32;;;;;;;;;;5071114;28;20032;-78
2023/03/08 14:27:06;;;;;;;13.00;11.70;;;;;;;;;;5089229;28;20043;-76
2023/03/08 14:29:33;;;;;;;11.55;10.50;;;;;;;;;;5071005;28;20127;-79
2023/03/08 14:32:03;;;;;;;17.13;13.50;;;;;;;;;;5070245;28;20555;-78
2023/03/08 14:34:34;;;;;;;16.08;14.40;;;;;;;;;;5088015;28;20051;-79
2023/03/08 14:37:03;;;;;;;13.85;12.48;;;;;;;;;;5088645;28;20024;-78
2023/03/08 14:39:30;;;;;;;13.52;12.30;;;;;;;;;;5051018;28;20033;-78